Grandview on Hudson, New York
Current Conditions -  °F | °C
As of 1:27 AM on Friday 28 Nov 2014 (Local Time) from KHPN Reporting Station
Broken Clouds Broken Clouds  
Wind Chill: -1°   Ceiling: 900
Heat Index: -1°   Visibility: 10mi
Dew Point: -3°   Wind: 3mph
Humidity: 86%   Direction: 310°NW
Pressure: 30.03"   Gusts: NA
Location:  41.0938°N, 73.9254°W
Report Text: KHPN 280627Z 31003KT 10SM BKN009 M01/M03 A3003 RMK AO2 CIG 009V013
Loading
Personal Weather Stations






























Interactive Weather Map New forecast layout! Learn more

10-Day Weather Forecast

Advertisements
Track Severe Weather on mobile